This is the latest recevied weather packets stored in our database for station/object IN3BXS. If no packets are shown the sender has not sent any weather packets the latest 1 day(s).
| Time | Temp. | Humidity | Pressure | Rain* | Wind** | Luminosity | Snow |
|---|---|---|---|---|---|---|---|
| 1778077826 | 10° C | 36% | 1006.4 hPa | 0 mm | - | - | - |
| 1778076027 | 9.44° C | 37% | 1006.7 hPa | 2.03 mm | - | - | - |
| 1778074226 | 8.89° C | 41% | 1007 hPa | 6.35 mm | - | - | - |
| 1778063426 | 11.11° C | 36% | 1006 hPa | 1.02 mm | - | - | - |
| 1778059826 | 10.56° C | 39% | 1006.3 hPa | 0 mm | - | - | - |
| 1778056227 | 10° C | 38% | 1006.6 hPa | 0 mm | - | - | - |
| 1778054426 | 9.44° C | 38% | 1006.8 hPa | 0 mm | - | - | - |
| 1778052626 | 8.89° C | 48% | 1006.9 hPa | 0 mm | - | - | - |
| 1778050826 | 8.89° C | 48% | 1007 hPa | 0 mm | - | - | - |
| 1778049026 | 8.89° C | 47% | 1008.2 hPa | 0 mm | - | - | - |
| 1778047226 | 8.89° C | 47% | 1008.1 hPa | 0 mm | - | - | - |
| 1778045426 | 8.89° C | 50% | 1008 hPa | 1.02 mm | - | - | - |
| 1778043626 | 8.33° C | 50% | 1007.2 hPa | 1.02 mm | - | - | - |
| 1778041826 | 8.33° C | 50% | 1007.3 hPa | 0 mm | - | - | - |
| 1778040026 | 7.78° C | 50% | 1008.5 hPa | 0 mm | - | - | - |
| 1778038226 | 8.33° C | 50% | 1008.4 hPa | 0 mm | - | - | - |
| 1778034626 | 7.78° C | 49% | 1008.6 hPa | 0 mm | - | - | - |
| 1778031026 | 8.33° C | 50% | 1009.5 hPa | 0 mm | - | - | - |
| 1778029226 | 8.33° C | 50% | 1009.5 hPa | 0 mm | - | - | - |
| 1778014826 | 7.78° C | 48% | 1010.8 hPa | 0 mm | - | - | - |
| 1778013027 | 8.89° C | 50% | 1010.4 hPa | 0 mm | - | - | - |
| 1778011226 | 8.33° C | 49% | 1009.4 hPa | 0 mm | - | - | - |
* Rain latest hour (hover to see other rain measurements)
** Current wind speed in m/s (hover to see current wind gust speed)